Time;durP1;ratioP1;P1;durP2;ratioP2;P2;SDS_P1;SDS_P2;PMS_P1;PMS_P2;Temp;Humidity;BMP_temperature;BMP_pressure;BME280_temperature;BME280_humidity;BME280_pressure;Samples;Min_cycle;Max_cycle;Signal;HPM_P1;HPM_P2
2022/04/29 00:00:42;;;;;;;6.10;1.60;;;;;;;10.85;47.93;101601.97;1735994;82;21436;-45
2022/04/29 00:03:10;;;;;;;5.28;1.60;;;;;;;10.81;48.13;101606.73;1736128;82;20976;-45
2022/04/29 00:05:40;;;;;;;6.95;1.72;;;;;;;10.75;48.67;101610.21;1736188;82;20965;-44
2022/04/29 00:08:09;;;;;;;2.83;1.47;;;;;;;10.70;48.71;101595.08;1736315;82;21015;-44
2022/04/29 00:10:37;;;;;;;1.65;1.55;;;;;;;10.67;48.88;101608.03;1715213;82;22082;-45
2022/04/29 00:13:07;;;;;;;4.08;1.65;;;;;;;10.63;49.26;101609.78;1738756;81;21509;-45
2022/04/29 00:15:35;;;;;;;2.22;1.80;;;;;;;10.59;49.23;101607.61;1744083;82;21482;-45
2022/04/29 00:18:03;;;;;;;2.65;1.80;;;;;;;10.56;49.66;101607.62;1715188;82;20933;-45
2022/04/29 00:20:30;;;;;;;1.72;1.52;;;;;;;10.53;49.70;101611.50;1744073;82;20925;-44
2022/04/29 00:22:59;;;;;;;5.25;1.70;;;;;;;10.49;49.91;101619.69;1744469;82;20940;-45
2022/04/29 00:25:27;;;;;;;3.62;1.67;;;;;;;10.49;49.80;101618.84;1714794;82;20917;-45
2022/04/29 00:27:54;;;;;;;2.98;1.82;;;;;;;10.47;49.81;101617.95;1744011;81;21522;-45
2022/04/29 00:30:22;;;;;;;3.17;1.80;;;;;;;10.45;49.83;101614.09;1744356;82;21073;-45
2022/04/29 00:32:49;;;;;;;3.47;1.87;;;;;;;10.43;50.10;101615.81;1744163;82;20916;-45
2022/04/29 00:35:17;;;;;;;2.12;1.55;;;;;;;10.41;50.46;101612.78;1744195;82;20874;-45
2022/04/29 00:37:53;;;;;;;2.60;1.80;;;;;;;10.39;50.68;101618.36;1744092;82;22102;-45
2022/04/29 00:40:27;;;;;;;4.97;1.80;;;;;;;10.35;50.86;101613.18;1744208;82;20902;-43
2022/04/29 00:42:53;;;;;;;4.10;1.52;;;;;;;10.31;50.93;101611.45;1744036;82;20889;-45
2022/04/29 00:45:21;;;;;;;5.50;2.52;;;;;;;10.29;51.11;101614.48;1744180;82;21046;-44
2022/04/29 00:47:49;;;;;;;3.20;1.72;;;;;;;10.27;51.41;101607.56;1714750;82;21202;-44
2022/04/29 00:50:21;;;;;;;1.92;1.75;;;;;;;10.25;51.66;101605.41;1743955;82;20933;-44
2022/04/29 00:52:50;;;;;;;4.08;1.75;;;;;;;10.21;51.78;101604.52;1744082;82;20972;-44
2022/04/29 00:55:19;;;;;;;3.55;1.65;;;;;;;10.17;51.89;101604.09;1744150;82;20995;-44
2022/04/29 00:58:06;;;;;;;3.77;1.90;;;;;;;10.14;52.10;101599.80;1744191;82;21011;-44
2022/04/29 01:00:36;;;;;;;2.98;1.75;;;;;;;10.12;52.29;101599.34;1744041;82;20949;-44
2022/04/29 01:03:04;;;;;;;5.20;1.70;;;;;;;10.09;52.35;101592.87;1744097;82;21243;-44
2022/04/29 01:05:37;;;;;;;2.75;1.65;;;;;;;10.06;52.57;101595.89;1743952;81;21003;-44
2022/04/29 01:08:01;;;;;;;7.45;1.90;;;;;;;10.03;52.97;101592.01;1743653;82;21011;-44
2022/04/29 01:10:28;;;;;;;2.05;1.70;;;;;;;9.99;52.94;101588.98;1744054;82;21015;-44
2022/04/29 01:12:58;;;;;;;3.05;1.60;;;;;;;9.97;52.93;101591.12;1742678;81;21261;-44
2022/04/29 01:15:26;;;;;;;4.95;1.75;;;;;;;9.95;53.00;101588.97;1735857;82;20995;-44
2022/04/29 01:17:58;;;;;;;1.85;1.70;;;;;;;9.92;53.14;101593.28;1735947;82;21030;-44
2022/04/29 01:20:29;;;;;;;1.98;1.45;;;;;;;9.89;53.30;101593.69;1736016;81;20893;-44
2022/04/29 01:22:57;;;;;;;2.17;1.85;;;;;;;9.86;53.69;101591.09;1735818;82;20854;-44
2022/04/29 01:25:24;;;;;;;3.67;1.60;;;;;;;9.86;53.68;101600.15;1735903;82;21270;-44
2022/04/29 01:27:53;;;;;;;2.67;1.80;;;;;;;9.84;53.47;101604.45;1735811;82;21412;-44
2022/04/29 01:30:22;;;;;;;3.40;1.67;;;;;;;9.83;53.43;101604.02;1735891;82;20941;-44
2022/04/29 01:32:50;;;;;;;1.87;1.65;;;;;;;9.81;53.74;101607.03;1735855;82;20945;-44
2022/04/29 01:35:17;;;;;;;3.27;1.82;;;;;;;9.81;53.68;101599.28;1736251;82;21064;-44
2022/04/29 01:37:44;;;;;;;4.53;1.70;;;;;;;9.80;53.66;101602.28;1736024;82;21566;-44
2022/04/29 01:40:12;;;;;;;3.35;1.65;;;;;;;9.77;53.67;101594.10;1735947;81;20902;-44
2022/04/29 01:42:40;;;;;;;3.22;1.92;;;;;;;9.77;53.79;101597.98;1735831;82;21387;-44
2022/04/29 01:45:09;;;;;;;4.05;2.20;;;;;;;9.77;53.72;101597.98;1735836;82;20973;-44
2022/04/29 01:47:40;;;;;;;10.23;1.77;;;;;;;9.76;53.49;101601.84;1734120;82;20937;-44
2022/04/29 01:50:09;;;;;;;3.83;1.70;;;;;;;9.76;53.09;101597.96;1714693;82;21267;-44
2022/04/29 01:52:37;;;;;;;2.22;1.30;;;;;;;9.76;53.33;101605.30;1735917;82;20842;-44
2022/04/29 01:55:06;;;;;;;1.62;1.35;;;;;;;9.76;53.28;101603.13;1735816;81;21083;-44
2022/04/29 01:57:35;;;;;;;4.35;2.40;;;;;;;9.75;53.19;101609.16;1735824;82;20958;-44
2022/04/29 02:00:04;;;;;;;3.58;1.80;;;;;;;9.73;53.10;101604.01;1735801;81;20941;-44
2022/04/29 02:02:33;;;;;;;3.60;1.80;;;;;;;9.73;52.96;101605.71;1735575;81;21233;-44
2022/04/29 02:04:59;;;;;;;1.80;1.57;;;;;;;9.71;52.44;101608.28;1735872;82;20878;-44
2022/04/29 02:07:27;;;;;;;1.57;1.47;;;;;;;9.72;52.66;101606.57;1735747;81;20956;-44
2022/04/29 02:09:56;;;;;;;6.40;1.50;;;;;;;9.71;52.71;101610.86;1735950;82;20976;-44
2022/04/29 02:12:24;;;;;;;2.77;1.50;;;;;;;9.69;52.59;101608.70;1735835;82;20980;-44
2022/04/29 02:14:58;;;;;;;4.10;1.60;;;;;;;9.66;52.81;101612.58;1743018;81;21610;-45
2022/04/29 02:17:32;;;;;;;2.92;2.05;;;;;;;9.65;52.68;101612.14;1715466;82;21494;-44
2022/04/29 02:19:59;;;;;;;5.30;1.70;;;;;;;9.64;52.70;101613.00;1714613;82;21601;-44
2022/04/29 02:22:26;;;;;;;2.98;1.82;;;;;;;9.61;52.63;101608.70;1744032;82;20893;-44
2022/04/29 02:24:52;;;;;;;6.10;1.70;;;;;;;9.59;52.74;101610.83;1744088;82;20889;-45
2022/04/29 02:27:21;;;;;;;7.35;1.60;;;;;;;9.56;52.74;101605.66;1715200;82;21910;-44
2022/04/29 02:29:49;;;;;;;1.62;1.20;;;;;;;9.54;52.69;101612.09;1744352;82;21474;-44
2022/04/29 02:32:18;;;;;;;1.67;1.52;;;;;;;9.52;52.53;101614.26;1744010;82;20984;-44
2022/04/29 02:34:46;;;;;;;3.30;1.37;;;;;;;9.51;52.71;101612.53;1744030;82;21061;-43
2022/04/29 02:37:14;;;;;;;2.45;1.90;;;;;;;9.51;52.56;101622.88;1744020;82;20985;-43
2022/04/29 02:39:42;;;;;;;6.00;1.50;;;;;;;9.49;52.48;101618.56;1743726;81;21159;-44
2022/04/29 02:42:11;;;;;;;2.40;1.55;;;;;;;9.46;52.70;101618.52;1744014;82;20912;-44
2022/04/29 02:44:38;;;;;;;1.87;1.30;;;;;;;9.44;53.11;101622.81;1743940;82;20980;-44
2022/04/29 02:47:08;;;;;;;2.22;1.37;;;;;;;9.43;53.12;101626.26;1744054;82;20901;-44
2022/04/29 02:49:43;;;;;;;1.85;1.17;;;;;;;9.40;53.82;101621.52;1744007;82;21000;-44
2022/04/29 02:52:12;;;;;;;1.37;1.13;;;;;;;9.37;53.64;101624.94;1744261;82;21237;-44
2022/04/29 02:54:41;;;;;;;2.65;1.55;;;;;;;9.35;53.55;101630.53;1743858;82;21045;-44
2022/04/29 02:57:15;;;;;;;2.08;1.30;;;;;;;9.33;53.54;101630.52;1731151;82;20936;-44
2022/04/29 02:59:44;;;;;;;2.08;1.42;;;;;;;9.32;53.77;101633.11;1743835;81;20869;-44
2022/04/29 03:02:11;;;;;;;5.03;1.50;;;;;;;9.31;53.84;101632.22;1744014;82;20896;-45
2022/04/29 03:04:39;;;;;;;3.83;1.67;;;;;;;9.31;53.72;101633.96;1743936;82;21137;-45
2022/04/29 03:07:08;;;;;;;7.58;1.65;;;;;;;9.30;53.86;101634.38;1744037;82;20956;-45
2022/04/29 03:09:48;;;;;;;5.08;1.45;;;;;;;9.32;53.84;101638.27;1742824;82;20988;-44
2022/04/29 03:12:15;;;;;;;3.85;1.42;;;;;;;9.32;53.98;101646.87;1744051;82;20916;-45
2022/04/29 03:14:45;;;;;;;7.67;1.60;;;;;;;9.32;54.01;101645.58;1738762;81;20885;-44
2022/04/29 03:19:59;;;;;;;1.63;1.37;;;;;;;9.33;54.06;101651.63;1736197;82;21467;-44
2022/04/29 03:22:26;;;;;;;5.37;1.22;;;;;;;9.33;54.03;101650.34;1735816;82;21072;-44
2022/04/29 03:24:54;;;;;;;2.25;1.40;;;;;;;9.33;54.22;101655.06;1736205;81;20984;-44
2022/04/29 03:29:37;;;;;;;3.25;1.60;;;;;;;9.38;54.38;101644.76;1798328;79;22569;-43
2022/04/29 03:32:08;;;;;;;3.70;1.72;;;;;;;9.33;54.63;101640.84;1738938;81;20931;-43
2022/04/29 03:34:38;;;;;;;7.60;2.15;;;;;;;9.34;54.54;101645.16;1749810;81;20869;-44
2022/04/29 03:37:05;;;;;;;9.65;2.15;;;;;;;9.36;54.79;101640.45;1754893;81;20881;-44
2022/04/29 03:39:33;;;;;;;3.87;1.90;;;;;;;9.35;54.99;101638.28;1749764;82;20976;-44
2022/04/29 03:42:00;;;;;;;8.48;1.95;;;;;;;9.36;54.81;101646.47;1749834;82;20968;-44
2022/04/29 03:44:27;;;;;;;7.62;2.02;;;;;;;9.38;54.83;101638.74;1749697;82;20983;-44
2022/04/29 03:46:54;;;;;;;6.37;1.87;;;;;;;9.39;54.88;101642.61;1749790;82;21147;-44
2022/04/29 03:49:38;;;;;;;4.08;1.45;;;;;;;9.40;54.99;101641.75;1747913;82;21486;-43
2022/04/29 03:52:10;;;;;;;3.05;1.75;;;;;;;9.42;54.97;101636.61;1738610;82;20932;-43
2022/04/29 03:54:39;;;;;;;6.62;1.60;;;;;;;9.45;54.90;101637.47;1749711;82;20975;-44
2022/04/29 03:57:06;;;;;;;1.77;1.42;;;;;;;9.49;55.22;101644.41;1720318;82;20905;-44
2022/04/29 03:59:33;;;;;;;4.70;1.40;;;;;;;9.52;55.53;101645.27;1730804;82;22146;-44
2022/04/29 04:02:02;;;;;;;7.78;1.40;;;;;;;9.55;54.80;101640.12;1720476;82;20975;-44
2022/04/29 04:04:29;;;;;;;3.02;1.77;;;;;;;9.57;55.14;101641.83;1720344;82;20963;-44
2022/04/29 04:07:01;;;;;;;2.17;1.40;;;;;;;9.62;55.00;101653.50;1749661;82;20948;-43
2022/04/29 04:09:28;;;;;;;4.80;1.67;;;;;;;9.64;54.93;101647.91;1748514;82;21438;-44
2022/04/29 04:11:57;;;;;;;2.10;1.57;;;;;;;9.67;55.00;101645.33;1749309;82;21175;-44
2022/04/29 04:14:44;;;;;;;5.28;2.00;;;;;;;9.72;54.99;101641.03;1704911;84;20930;-43
2022/04/29 04:17:12;;;;;;;4.20;2.10;;;;;;;9.75;54.67;101646.25;1705139;84;21171;-43
2022/04/29 04:19:39;;;;;;;5.97;2.00;;;;;;;9.78;54.43;101647.55;1720775;82;21018;-44
2022/04/29 04:22:06;;;;;;;6.03;1.50;;;;;;;9.82;54.49;101654.02;1749599;82;20881;-44
2022/04/29 04:24:33;;;;;;;8.83;2.15;;;;;;;9.84;54.35;101657.47;1749693;82;21134;-44
2022/04/29 04:27:00;;;;;;;2.22;1.62;;;;;;;9.86;54.15;101660.52;1720517;82;20940;-44
2022/04/29 04:29:31;;;;;;;6.75;1.80;;;;;;;9.89;53.98;101657.94;1750280;81;20888;-44
2022/04/29 04:31:57;;;;;;;2.02;1.82;;;;;;;9.91;54.29;101655.33;1750459;80;20921;-45
2022/04/29 04:37:10;;;;;;;9.03;2.05;;;;;;;10.01;53.95;101653.23;1750599;81;21183;-44
2022/04/29 04:39:37;;;;;;;2.45;1.98;;;;;;;10.09;53.99;101661.44;1750285;82;21466;-44
2022/04/29 04:42:07;;;;;;;9.93;2.10;;;;;;;10.18;54.01;101656.27;1749563;82;21399;-44
2022/04/29 04:44:37;;;;;;;2.27;1.60;;;;;;;10.28;53.92;101654.16;1748946;82;21411;-44
2022/04/29 04:47:05;;;;;;;4.00;1.95;;;;;;;10.37;53.51;101648.55;1749768;82;20969;-45
2022/04/29 04:49:52;;;;;;;3.58;1.60;;;;;;;10.43;52.83;101649.88;1727026;82;20901;-43
2022/04/29 04:52:21;;;;;;;7.15;2.20;;;;;;;10.47;52.77;101646.42;1749707;81;20853;-44
2022/04/29 04:54:48;;;;;;;5.70;1.80;;;;;;;10.52;53.16;101647.73;1749876;81;20964;-44
2022/04/29 04:57:15;;;;;;;4.03;1.52;;;;;;;10.57;53.17;101654.66;1722557;82;20936;-44
2022/04/29 04:59:43;;;;;;;11.18;1.82;;;;;;;10.65;52.99;101652.08;1722770;82;20987;-44
2022/04/29 05:02:10;;;;;;;4.15;2.10;;;;;;;10.71;52.84;101660.25;1749885;82;21075;-44
2022/04/29 05:04:46;;;;;;;3.52;1.80;;;;;;;10.76;52.80;101661.98;1749821;82;21188;-43
2022/04/29 05:07:24;;;;;;;5.12;1.60;;;;;;;10.84;53.17;101671.06;1721333;82;20889;-44
2022/04/29 05:09:51;;;;;;;7.17;1.95;;;;;;;10.92;53.21;101671.91;1749890;82;20893;-44
2022/04/29 05:12:18;;;;;;;9.48;1.95;;;;;;;11.00;52.78;101668.03;1749836;81;20960;-45
2022/04/29 05:15:07;;;;;;;6.78;1.60;;;;;;;11.09;52.21;101674.05;1749822;82;21522;-43
2022/04/29 05:17:34;;;;;;;4.95;1.80;;;;;;;11.16;51.58;101679.69;1722309;82;20917;-45
2022/04/29 05:20:04;;;;;;;5.05;1.62;;;;;;;11.19;51.32;101685.70;1750018;82;20901;-45
2022/04/29 05:22:32;;;;;;;3.98;1.65;;;;;;;11.20;51.21;101691.31;1750031;82;20948;-45
2022/04/29 05:25:01;;;;;;;6.95;1.87;;;;;;;11.18;51.37;101690.45;1749902;82;21034;-42
2022/04/29 05:27:46;;;;;;;4.72;1.98;;;;;;;11.13;51.73;101688.31;1749940;80;21161;-44
2022/04/29 05:30:33;;;;;;;24.85;2.70;;;;;;;11.04;51.90;101696.10;1746234;81;20912;-43
2022/04/29 05:33:18;;;;;;;5.75;1.82;;;;;;;11.02;51.83;101699.13;1746638;82;21467;-44
2022/04/29 05:36:05;;;;;;;7.90;1.70;;;;;;;10.99;51.53;101701.70;1746131;82;21474;-44
2022/04/29 05:44:14;;;;;;;6.42;1.90;;;;;;;10.87;51.71;101708.62;1746503;82;20925;-44
2022/04/29 05:46:41;;;;;;;3.12;1.62;;;;;;;10.87;51.20;101715.09;1746269;81;21011;-44
2022/04/29 05:49:08;;;;;;;5.33;1.95;;;;;;;10.87;51.29;101708.62;1746084;82;20853;-44
2022/04/29 05:51:37;;;;;;;3.40;1.65;;;;;;;10.89;51.63;101707.34;1745931;82;20937;-44
2022/04/29 05:54:05;;;;;;;4.65;1.62;;;;;;;10.90;51.70;101703.44;1746321;82;21027;-44
2022/04/29 05:56:32;;;;;;;9.68;1.80;;;;;;;10.92;52.03;101703.00;1746082;81;21482;-44
2022/04/29 05:58:59;;;;;;;30.77;2.87;;;;;;;10.93;52.13;101700.84;1745998;81;20976;-44
2022/04/29 06:01:32;;;;;;;11.03;2.30;;;;;;;10.96;52.17;101701.70;1683023;82;20996;-44
2022/04/29 06:03:59;;;;;;;6.97;2.52;;;;;;;10.98;52.29;101701.27;1746289;82;21007;-44
2022/04/29 06:06:26;;;;;;;13.80;2.20;;;;;;;10.99;52.04;101697.81;1746051;82;21004;-43
2022/04/29 06:08:54;;;;;;;10.60;2.12;;;;;;;10.99;52.45;101699.98;1746158;82;20992;-44
2022/04/29 06:11:24;;;;;;;4.40;2.70;;;;;;;10.98;52.42;101699.55;1746243;81;20873;-44
2022/04/29 06:13:51;;;;;;;12.85;2.10;;;;;;;11.01;52.99;101704.73;1746154;82;20976;-44
2022/04/29 06:16:38;;;;;;;4.80;1.77;;;;;;;11.06;53.48;101700.85;1746234;82;20917;-45
2022/04/29 06:19:24;;;;;;;8.90;2.42;;;;;;;11.12;53.41;101699.99;1746144;82;21098;-44
2022/04/29 06:22:11;;;;;;;7.42;1.72;;;;;;;11.20;53.06;101708.61;1638608;86;21753;-44
2022/04/29 06:24:40;;;;;;;16.17;2.25;;;;;;;11.25;52.89;101707.32;1633344;87;20971;-44
2022/04/29 06:27:07;;;;;;;5.90;1.55;;;;;;;11.34;52.67;101708.14;1644498;85;20888;-44
2022/04/29 06:29:35;;;;;;;4.37;2.10;;;;;;;11.44;52.27;101708.14;1711379;83;20969;-44
2022/04/29 06:32:05;;;;;;;7.80;2.67;;;;;;;11.54;51.87;101704.66;1721543;83;20844;-44
2022/04/29 06:34:50;;;;;;;16.48;3.50;;;;;;;11.62;51.09;101706.81;1651838;84;21033;-43
2022/04/29 06:37:20;;;;;;;13.78;5.40;;;;;;;11.72;51.01;101707.62;1692708;84;21422;-43
2022/04/29 06:39:46;;;;;;;23.83;5.10;;;;;;;11.84;50.59;101721.44;1692740;83;20951;-44
2022/04/29 06:42:18;;;;;;;11.08;3.95;;;;;;;11.89;50.11;101717.08;1689500;83;20927;-44
2022/04/29 06:45:06;;;;;;;11.97;3.05;;;;;;;11.93;49.85;101725.28;1692877;84;21277;-45
2022/04/29 06:47:50;;;;;;;8.43;2.90;;;;;;;11.99;49.35;101727.84;1667457;84;20907;-45
2022/04/29 06:50:19;;;;;;;6.00;2.40;;;;;;;12.02;49.47;101731.78;1665657;83;20951;-45
2022/04/29 06:52:48;;;;;;;13.22;1.80;;;;;;;12.07;48.36;101738.23;1716983;82;21010;-44
2022/04/29 06:55:17;;;;;;;4.65;2.00;;;;;;;12.09;48.03;101738.23;1692383;84;20927;-44
2022/04/29 06:57:46;;;;;;;4.53;2.22;;;;;;;12.06;47.92;101737.38;1692562;84;21059;-44
2022/04/29 07:00:15;;;;;;;2.67;2.40;;;;;;;12.07;48.37;101738.23;1692648;84;20987;-44
2022/04/29 07:02:43;;;;;;;5.58;2.15;;;;;;;12.12;48.88;101744.70;1665845;84;21008;-44
2022/04/29 07:05:11;;;;;;;12.15;2.37;;;;;;;12.22;49.03;101735.99;1721563;83;21026;-44
2022/04/29 07:07:38;;;;;;;12.95;2.62;;;;;;;12.35;48.75;101749.36;1692702;84;20899;-44
2022/04/29 07:10:15;;;;;;;5.90;2.30;;;;;;;12.41;48.38;101745.00;1689119;84;21006;-44
2022/04/29 07:12:54;;;;;;;5.25;2.20;;;;;;;12.44;48.01;101748.45;1717811;83;21410;-44
2022/04/29 07:15:21;;;;;;;9.10;2.20;;;;;;;12.47;48.25;101750.14;1721598;83;21560;-44
2022/04/29 07:17:50;;;;;;;7.58;2.00;;;;;;;12.52;48.38;101756.20;1692662;84;21011;-44
2022/04/29 07:20:18;;;;;;;8.95;2.40;;;;;;;12.56;48.10;101754.01;1692664;84;20951;-43
2022/04/29 07:22:46;;;;;;;10.55;2.52;;;;;;;12.60;48.39;101762.63;1692891;84;21309;-45
2022/04/29 07:25:13;;;;;;;3.90;2.33;;;;;;;12.70;48.19;101757.81;1692541;83;20899;-44
2022/04/29 07:27:41;;;;;;;3.37;2.10;;;;;;;12.78;48.39;101764.27;1692691;84;20999;-44
2022/04/29 07:30:11;;;;;;;3.47;1.80;;;;;;;12.90;48.42;101765.47;1706727;83;21015;-44
2022/04/29 07:32:52;;;;;;;14.00;2.10;;;;;;;13.01;46.67;101760.61;1695355;84;20865;-44
2022/04/29 07:44:03;;;;;;;5.90;1.80;;;;;;;13.26;45.59;101766.48;1696006;84;21007;-45
2022/04/29 07:46:33;;;;;;;8.10;2.12;;;;;;;13.37;45.66;101763.79;1695881;84;21008;-45
2022/04/29 07:49:00;;;;;;;4.72;1.65;;;;;;;13.50;45.08;101765.41;1695828;84;21069;-45
2022/04/29 07:51:27;;;;;;;10.45;2.02;;;;;;;13.62;44.82;101772.69;1695840;84;20907;-44
2022/04/29 07:53:55;;;;;;;5.92;1.62;;;;;;;13.73;44.53;101767.38;1695900;84;20917;-45
2022/04/29 07:56:23;;;;;;;3.17;1.67;;;;;;;13.87;44.63;101762.02;1695875;84;20980;-44
2022/04/29 07:58:51;;;;;;;2.08;1.60;;;;;;;13.98;42.80;101760.59;1695962;84;21052;-44
2022/04/29 08:01:18;;;;;;;2.85;1.60;;;;;;;14.02;43.47;101766.17;1695993;84;21505;-44
2022/04/29 08:03:45;;;;;;;3.85;1.85;;;;;;;14.08;42.45;101760.88;1696036;84;21521;-44
2022/04/29 08:06:21;;;;;;;2.85;2.25;;;;;;;14.10;42.09;101756.97;1695987;84;21470;-45
2022/04/29 08:08:48;;;;;;;5.03;1.60;;;;;;;14.21;42.35;101762.47;1695640;84;20948;-44
2022/04/29 08:11:16;;;;;;;2.62;1.42;;;;;;;14.44;41.33;101755.22;1695815;84;21066;-44
2022/04/29 08:13:47;;;;;;;2.50;1.47;;;;;;;14.66;41.12;101754.48;1686070;84;21254;-44
2022/04/29 08:16:20;;;;;;;6.47;1.70;;;;;;;14.84;41.20;101755.97;1678494;84;21040;-44
2022/04/29 08:19:10;;;;;;;3.75;1.52;;;;;;;15.13;41.58;101753.76;1695964;83;21439;-44
2022/04/29 08:21:40;;;;;;;9.03;2.08;;;;;;;15.52;41.54;101750.88;1692263;84;21552;-45
2022/04/29 08:24:07;;;;;;;142.90;6.35;;;;;;;16.03;40.46;101744.30;1695907;83;21427;-45
2022/04/29 08:26:34;;;;;;;6.22;1.70;;;;;;;16.41;39.48;101742.59;1664049;84;21798;-45
2022/04/29 08:29:03;;;;;;;4.65;1.30;;;;;;;16.60;38.72;101744.36;1695774;83;21003;-45
2022/04/29 08:31:31;;;;;;;3.98;1.50;;;;;;;16.66;36.42;101740.28;1695787;83;21024;-45
2022/04/29 08:33:57;;;;;;;4.03;1.40;;;;;;;16.71;34.44;101736.27;1695906;84;21118;-45
2022/04/29 08:36:25;;;;;;;2.15;1.37;;;;;;;16.48;35.78;101738.97;1695751;83;20975;-45
2022/04/29 08:38:53;;;;;;;4.70;1.67;;;;;;;16.55;36.01;101733.16;1695987;84;21322;-46
2022/04/29 08:41:20;;;;;;;3.52;1.30;;;;;;;16.55;35.34;101733.59;1695805;83;21062;-45
2022/04/29 08:43:49;;;;;;;2.02;1.40;;;;;;;16.44;35.04;101727.30;1695870;84;20937;-44
2022/04/29 08:46:22;;;;;;;5.30;1.30;;;;;;;16.48;34.69;101723.28;1695517;84;20933;-45
2022/04/29 08:48:50;;;;;;;3.60;2.55;;;;;;;16.23;35.06;101721.23;1666531;84;20964;-45
2022/04/29 08:51:19;;;;;;;3.50;1.70;;;;;;;16.21;35.41;101720.84;1695983;84;21020;-45
2022/04/29 08:53:47;;;;;;;12.70;5.35;;;;;;;16.21;35.43;101716.92;1695779;83;21011;-46
2022/04/29 08:59:01;;;;;;;7.75;1.95;;;;;;;16.28;35.95;101722.41;1696025;84;20990;-45
2022/04/29 09:01:27;;;;;;;6.92;2.45;;;;;;;16.29;35.46;101721.52;1695901;83;20881;-45
2022/04/29 09:03:54;;;;;;;6.45;2.05;;;;;;;16.22;35.99;101712.10;1696057;84;21292;-45
2022/04/29 09:06:22;;;;;;;6.12;1.22;;;;;;;16.26;35.97;101720.75;1695693;84;20944;-45
2022/04/29 09:08:50;;;;;;;4.03;1.67;;;;;;;16.36;35.73;101719.20;1696068;84;20996;-45
2022/04/29 09:11:26;;;;;;;12.20;1.65;;;;;;;16.40;35.15;101720.44;1695780;83;20932;-47
2022/04/29 09:13:52;;;;;;;10.30;2.37;;;;;;;16.48;34.77;101714.57;1696084;84;21570;-45
2022/04/29 09:16:21;;;;;;;10.70;3.02;;;;;;;16.44;34.46;101710.31;1696018;84;21197;-46
2022/04/29 09:18:53;;;;;;;4.20;1.82;;;;;;;16.41;34.83;101708.63;1695836;84;20932;-45
2022/04/29 09:21:24;;;;;;;3.95;1.62;;;;;;;16.45;34.91;101712.03;1695762;84;21078;-45
2022/04/29 09:23:55;;;;;;;3.25;1.25;;;;;;;16.50;34.99;101712.78;1688249;84;20988;-45
2022/04/29 09:26:40;;;;;;;3.67;1.80;;;;;;;16.60;34.50;101709.07;1695878;83;21589;-45
2022/04/29 09:29:19;;;;;;;3.87;1.62;;;;;;;16.71;34.58;101707.94;1692317;83;21067;-45
2022/04/29 09:31:58;;;;;;;7.92;2.30;;;;;;;16.80;34.60;101701.20;1661210;83;20944;-45
2022/04/29 09:34:58;;;;;;;6.97;2.35;;;;;;;16.85;34.82;101704.55;1701542;84;20960;-46
2022/04/29 09:37:27;;;;;;;9.55;2.77;;;;;;;17.01;33.97;101714.20;1710969;83;20892;-45
2022/04/29 09:39:56;;;;;;;5.78;3.00;;;;;;;17.02;33.91;101713.30;1700998;84;20956;-45
2022/04/29 09:42:23;;;;;;;6.85;3.12;;;;;;;17.07;34.38;101705.35;1711060;83;21022;-46
2022/04/29 09:44:49;;;;;;;12.80;2.45;;;;;;;16.94;34.49;101714.77;1701316;84;20928;-45
2022/04/29 09:47:19;;;;;;;5.33;2.33;;;;;;;16.82;32.80;101709.86;1711191;83;20939;-45
2022/04/29 09:49:54;;;;;;;5.15;2.17;;;;;;;16.56;34.27;101714.40;1700919;84;20905;-45
2022/04/29 09:52:20;;;;;;;7.35;1.55;;;;;;;16.42;34.65;101710.38;1710970;82;20971;-45
2022/04/29 09:54:47;;;;;;;4.72;1.60;;;;;;;16.42;33.68;101715.59;1701427;84;21407;-46
2022/04/29 09:57:18;;;;;;;7.78;2.47;;;;;;;16.41;33.70;101716.92;1711059;83;20991;-46
2022/04/29 09:59:49;;;;;;;3.58;2.00;;;;;;;16.52;34.73;101717.52;1701090;84;21498;-46
2022/04/29 10:02:24;;;;;;;2.90;1.55;;;;;;;16.71;34.09;101702.72;1711079;83;20932;-46
2022/04/29 10:04:54;;;;;;;10.25;1.57;;;;;;;16.79;34.17;101706.86;1701654;84;21011;-45
2022/04/29 10:07:23;;;;;;;4.17;1.52;;;;;;;16.86;34.83;101714.11;1711110;83;21153;-45
2022/04/29 10:09:59;;;;;;;6.55;2.08;;;;;;;16.88;34.91;101711.44;1701393;84;21619;-45
2022/04/29 10:12:27;;;;;;;3.42;2.37;;;;;;;16.92;34.59;101703.49;1710920;83;20955;-45
2022/04/29 10:15:00;;;;;;;6.12;1.80;;;;;;;17.00;33.71;101702.46;1697388;84;20901;-45
2022/04/29 10:23:11;;;;;;;6.10;1.17;;;;;;;17.20;31.70;101694.95;1711077;82;21038;-44
2022/04/29 10:25:43;;;;;;;2.33;1.15;;;;;;;17.15;31.41;101700.77;1701244;84;21016;-44
2022/04/29 10:28:21;;;;;;;1.95;0.98;;;;;;;17.12;32.53;101704.77;1710958;83;20984;-44
2022/04/29 10:31:05;;;;;;;1.72;0.95;;;;;;;17.18;31.39;101694.61;1684704;84;21553;-45
2022/04/29 10:33:31;;;;;;;3.58;0.90;;;;;;;17.18;32.44;101698.06;1681449;84;21247;-45
2022/04/29 10:36:09;;;;;;;1.52;1.05;;;;;;;17.21;29.99;101695.36;1740684;82;20980;-45
2022/04/29 10:38:39;;;;;;;1.67;1.17;;;;;;;17.15;30.49;101698.59;1740704;82;20968;-45
2022/04/29 10:41:15;;;;;;;5.28;1.98;;;;;;;17.13;30.22;101685.56;1740885;82;20988;-44
2022/04/29 10:43:57;;;;;;;2.15;1.60;;;;;;;17.08;30.00;101689.59;1740490;82;21985;-44
2022/04/29 10:46:36;;;;;;;2.55;1.50;;;;;;;17.05;30.14;101692.73;1740863;82;22092;-44
2022/04/29 10:49:25;;;;;;;5.80;1.57;;;;;;;17.04;30.15;101691.02;1739490;82;21525;-45
2022/04/29 10:52:05;;;;;;;8.18;1.35;;;;;;;17.04;30.77;101692.33;1679554;82;20886;-45
2022/04/29 10:54:43;;;;;;;1.35;1.20;;;;;;;17.02;31.27;101686.28;1739635;82;20897;-45
2022/04/29 10:57:12;;;;;;;4.65;1.05;;;;;;;16.82;31.34;101694.17;1724415;82;21517;-44
2022/04/29 11:00:00;;;;;;;5.80;1.25;;;;;;;16.51;32.13;101703.61;1740681;82;21240;-44
2022/04/29 11:02:28;;;;;;;3.17;1.40;;;;;;;16.37;32.94;101701.32;1739737;82;21416;-44
2022/04/29 11:04:57;;;;;;;1.87;1.30;;;;;;;16.40;33.19;101700.38;1740795;82;21387;-44
2022/04/29 11:07:39;;;;;;;6.85;1.52;;;;;;;16.45;33.40;101699.84;1740701;81;20901;-44
2022/04/29 11:10:19;;;;;;;2.52;1.05;;;;;;;16.48;33.74;101697.59;1740537;82;20968;-44
2022/04/29 11:13:03;;;;;;;7.35;1.60;;;;;;;16.48;33.69;101698.46;1735524;82;21128;-44
2022/04/29 11:15:44;;;;;;;4.55;1.40;;;;;;;16.38;33.55;101698.24;1740726;82;20909;-44
2022/04/29 11:18:23;;;;;;;4.70;1.20;;;;;;;16.34;33.67;101695.30;1739137;81;20897;-44
2022/04/29 11:20:57;;;;;;;5.20;1.32;;;;;;;16.27;33.57;101683.28;1731041;82;20960;-45
2022/04/29 11:26:12;;;;;;;5.87;1.75;;;;;;;16.19;32.78;101693.46;1741056;82;21107;-45
2022/04/29 11:28:41;;;;;;;4.08;1.52;;;;;;;16.08;32.72;101682.38;1740320;82;20893;-45
2022/04/29 11:31:13;;;;;;;4.60;1.98;;;;;;;15.99;32.81;101686.05;1735221;81;21553;-45
2022/04/29 11:33:40;;;;;;;4.58;2.33;;;;;;;15.92;33.13;101681.86;1735965;82;21506;-46
2022/04/29 11:36:12;;;;;;;4.35;1.80;;;;;;;15.91;33.24;101677.52;1735877;82;21520;-46
2022/04/29 11:38:47;;;;;;;4.22;1.70;;;;;;;15.94;33.78;101676.16;1735856;82;21143;-46
2022/04/29 11:41:21;;;;;;;6.25;1.80;;;;;;;16.02;33.46;101674.69;1735731;82;20985;-46
2022/04/29 11:43:49;;;;;;;4.42;2.75;;;;;;;16.15;33.28;101680.49;1735661;82;21048;-46
2022/04/29 11:46:16;;;;;;;9.38;1.77;;;;;;;16.21;33.05;101679.05;1735680;81;20933;-46
2022/04/29 11:48:59;;;;;;;10.05;2.20;;;;;;;16.19;33.01;101674.30;1735776;82;20996;-45
2022/04/29 11:51:28;;;;;;;7.92;2.52;;;;;;;16.09;32.93;101671.91;1736092;82;21245;-46
2022/04/29 11:54:04;;;;;;;3.60;2.80;;;;;;;15.97;32.75;101670.86;1736268;81;21027;-46
2022/04/29 11:56:38;;;;;;;3.45;1.42;;;;;;;15.95;33.19;101668.73;1735980;82;20945;-46
2022/04/29 11:59:06;;;;;;;6.03;1.50;;;;;;;15.98;32.69;101669.12;1735948;82;20945;-46
2022/04/29 12:01:33;;;;;;;2.80;1.20;;;;;;;15.91;31.97;101667.08;1736005;82;20965;-45
2022/04/29 12:04:00;;;;;;;2.65;1.42;;;;;;;15.72;32.72;101664.82;1735959;82;21231;-46
2022/04/29 12:06:26;;;;;;;4.05;1.37;;;;;;;15.61;32.80;101670.26;1736025;82;20860;-46
2022/04/29 12:08:53;;;;;;;3.95;1.37;;;;;;;15.53;33.04;101672.17;1735950;82;20984;-47
2022/04/29 12:11:30;;;;;;;3.17;1.40;;;;;;;15.43;32.36;101667.58;1736005;82;21498;-45
2022/04/29 12:13:59;;;;;;;8.30;2.20;;;;;;;15.33;32.74;101667.36;1735962;82;20917;-45
2022/04/29 12:16:27;;;;;;;7.33;2.30;;;;;;;15.32;33.23;101672.16;1734061;82;20845;-45